Time;durP1;ratioP1;P1;durP2;ratioP2;P2;SDS_P1;SDS_P2;PMS_P1;PMS_P2;Temp;Humidity;BMP_temperature;BMP_pressure;BME280_temperature;BME280_humidity;BME280_pressure;Samples;Min_cycle;Max_cycle;Signal;HPM_P1;HPM_P2
2022/10/12 00:01:13;;;;;;;;;;;12.40;99.90;;;;;;5095372;28;20353;-74
2022/10/12 00:03:39;;;;;;;;;;;12.40;99.90;;;;;;5095450;28;19915;-74
2022/10/12 00:06:06;;;;;;;;;;;12.40;99.90;;;;;;5095590;28;19908;-74
2022/10/12 00:08:32;;;;;;;;;;;12.40;99.90;;;;;;5094277;28;19915;-75
2022/10/12 00:10:57;;;;;;;;;;;12.40;99.90;;;;;;5094762;28;19993;-75
2022/10/12 00:13:23;;;;;;;;;;;12.40;99.90;;;;;;5095541;28;20356;-74
2022/10/12 00:15:49;;;;;;;;;;;12.40;99.90;;;;;;5094684;28;19912;-74
2022/10/12 00:18:14;;;;;;;;;;;12.40;99.90;;;;;;5095439;28;19914;-74
2022/10/12 00:20:40;;;;;;;;;;;12.40;99.90;;;;;;5094873;28;19919;-74
2022/10/12 00:23:06;;;;;;;;;;;12.40;99.90;;;;;;5095198;28;19952;-74
2022/10/12 00:25:38;;;;;;;;;;;12.40;99.90;;;;;;5095319;28;20002;-74
2022/10/12 00:28:04;;;;;;;;;;;12.50;99.90;;;;;;5095003;28;19908;-75
2022/10/12 00:30:30;;;;;;;;;;;12.50;99.90;;;;;;5095001;28;19919;-74
2022/10/12 00:32:56;;;;;;;;;;;12.50;99.90;;;;;;5094194;28;19938;-74
2022/10/12 00:35:21;;;;;;;;;;;12.50;99.90;;;;;;5093665;28;19919;-74
2022/10/12 00:37:47;;;;;;;;;;;12.60;99.90;;;;;;5094196;28;19974;-75
2022/10/12 00:40:12;;;;;;;;;;;12.60;99.90;;;;;;5094332;28;19912;-75
2022/10/12 00:42:38;;;;;;;;;;;12.60;99.90;;;;;;5092770;28;19912;-75
2022/10/12 00:45:04;;;;;;;;;;;12.60;99.90;;;;;;5094217;28;19947;-75
2022/10/12 00:47:32;;;;;;;;;;;12.60;99.90;;;;;;5095085;28;19915;-75
2022/10/12 00:50:04;;;;;;;;;;;12.60;99.90;;;;;;5094246;28;20135;-75
2022/10/12 00:52:56;;;;;;;;;;;12.60;99.90;;;;;;5094817;28;19916;-75
2022/10/12 00:55:23;;;;;;;;;;;12.60;99.90;;;;;;5092444;28;19916;-75
2022/10/12 00:57:50;;;;;;;;;;;12.60;99.90;;;;;;5093979;28;19908;-75
2022/10/12 01:00:16;;;;;;;;;;;12.50;99.90;;;;;;5094907;28;19914;-75
2022/10/12 01:02:42;;;;;;;;;;;12.60;99.90;;;;;;5094128;28;19908;-74
2022/10/12 01:05:09;;;;;;;;;;;12.60;99.90;;;;;;5094217;28;19912;-74
2022/10/12 01:07:34;;;;;;;;;;;12.60;99.90;;;;;;5093150;28;19939;-74
2022/10/12 01:10:00;;;;;;;;;;;12.60;99.90;;;;;;5093720;28;19952;-75
2022/10/12 01:12:26;;;;;;;;;;;12.60;99.90;;;;;;5094141;28;19973;-74
2022/10/12 01:14:52;;;;;;;;;;;12.50;99.90;;;;;;5093402;28;19964;-75
2022/10/12 01:17:21;;;;;;;;;;;12.60;99.90;;;;;;5094651;28;19953;-75
2022/10/12 01:19:59;;;;;;;;;;;12.60;99.90;;;;;;5093347;28;19914;-75
2022/10/12 01:22:25;;;;;;;;;;;12.60;99.90;;;;;;5094237;28;19908;-75
2022/10/12 01:24:51;;;;;;;;;;;12.70;99.90;;;;;;5093700;28;19912;-75
2022/10/12 01:27:28;;;;;;;;;;;12.70;99.90;;;;;;5094197;28;19915;-75
2022/10/12 01:30:06;;;;;;;;;;;12.70;99.90;;;;;;5093294;28;19908;-74
2022/10/12 01:32:50;;;;;;;;;;;12.70;99.90;;;;;;5093948;28;19913;-75
2022/10/12 01:35:22;;;;;;;;;;;12.70;99.90;;;;;;5093981;28;19919;-75
2022/10/12 01:37:48;;;;;;;;;;;12.70;99.90;;;;;;5093364;28;20337;-75
2022/10/12 01:40:19;;;;;;;;;;;12.80;99.90;;;;;;5093553;28;19914;-75
2022/10/12 01:42:45;;;;;;;;;;;12.80;99.90;;;;;;5093466;28;19908;-75
2022/10/12 01:45:13;;;;;;;;;;;12.80;99.90;;;;;;5093193;28;20403;-75
2022/10/12 01:47:39;;;;;;;;;;;12.80;99.90;;;;;;5092393;28;20265;-75
2022/10/12 01:50:06;;;;;;;;;;;12.80;99.90;;;;;;5092456;28;19912;-75
2022/10/12 01:52:41;;;;;;;;;;;12.80;99.90;;;;;;5093777;28;20318;-75
2022/10/12 01:55:14;;;;;;;;;;;12.80;99.90;;;;;;5092821;28;20384;-75
2022/10/12 01:57:40;;;;;;;;;;;12.80;99.90;;;;;;5093259;28;19916;-75
2022/10/12 02:00:07;;;;;;;;;;;12.80;99.90;;;;;;5093371;28;19966;-75
2022/10/12 02:02:32;;;;;;;;;;;12.80;99.90;;;;;;5093281;28;19963;-75
2022/10/12 02:05:08;;;;;;;;;;;12.80;99.90;;;;;;5092936;28;19935;-76
2022/10/12 02:07:42;;;;;;;;;;;12.80;99.90;;;;;;5093676;28;19954;-75
2022/10/12 02:10:13;;;;;;;;;;;12.80;99.90;;;;;;5092954;28;19908;-75
2022/10/12 02:12:41;;;;;;;;;;;12.80;99.90;;;;;;5093104;28;19916;-75
2022/10/12 02:15:08;;;;;;;;;;;12.80;99.90;;;;;;5092570;28;19962;-75
2022/10/12 02:17:34;;;;;;;;;;;12.90;99.90;;;;;;5093469;28;19908;-75
2022/10/12 02:20:00;;;;;;;;;;;12.90;99.90;;;;;;5092995;28;19908;-75
2022/10/12 02:22:35;;;;;;;;;;;13.00;99.90;;;;;;5092162;28;20269;-75
2022/10/12 02:25:06;;;;;;;;;;;13.00;99.90;;;;;;5092480;28;19908;-75
2022/10/12 02:27:33;;;;;;;;;;;13.00;99.90;;;;;;5092981;28;20373;-75
2022/10/12 02:29:59;;;;;;;;;;;13.00;99.90;;;;;;5092287;28;19908;-74
2022/10/12 02:32:36;;;;;;;;;;;13.10;99.90;;;;;;5093149;28;20410;-75
2022/10/12 02:35:08;;;;;;;;;;;13.10;99.90;;;;;;5092704;28;19912;-75
2022/10/12 02:37:35;;;;;;;;;;;13.00;99.90;;;;;;5091724;28;19908;-75
2022/10/12 02:40:03;;;;;;;;;;;13.10;99.90;;;;;;5092167;28;19919;-75
2022/10/12 02:42:35;;;;;;;;;;;13.00;99.90;;;;;;5092397;28;19908;-75
2022/10/12 02:45:03;;;;;;;;;;;13.00;99.90;;;;;;5091120;28;19930;-75
2022/10/12 02:47:29;;;;;;;;;;;13.00;99.90;;;;;;5092881;28;19974;-76
2022/10/12 02:49:56;;;;;;;;;;;13.00;99.90;;;;;;5092386;28;19937;-75
2022/10/12 02:52:22;;;;;;;;;;;13.00;99.90;;;;;;5095767;28;19912;-75
2022/10/12 02:54:48;;;;;;;;;;;13.10;99.90;;;;;;5096649;28;20006;-75
2022/10/12 02:57:13;;;;;;;;;;;13.10;99.90;;;;;;5096858;28;19998;-75
2022/10/12 02:59:39;;;;;;;;;;;13.10;99.90;;;;;;5097078;28;19938;-75
2022/10/12 03:02:05;;;;;;;;;;;13.10;99.90;;;;;;5096193;28;19987;-75
2022/10/12 03:04:30;;;;;;;;;;;13.10;99.90;;;;;;5096935;28;19912;-75
2022/10/12 03:06:56;;;;;;;;;;;13.00;99.90;;;;;;5096243;28;20300;-74
2022/10/12 03:09:21;;;;;;;;;;;13.00;99.90;;;;;;5096798;28;19999;-74
2022/10/12 03:11:47;;;;;;;;;;;12.90;99.90;;;;;;5096833;28;19908;-74
2022/10/12 03:14:16;;;;;;;;;;;12.90;99.90;;;;;;5095724;28;19916;-74
2022/10/12 03:16:42;;;;;;;;;;;12.90;99.90;;;;;;5095183;28;19908;-74
2022/10/12 03:19:08;;;;;;;;;;;12.90;99.90;;;;;;5095995;28;19908;-74
2022/10/12 03:21:34;;;;;;;;;;;12.90;99.90;;;;;;5096293;28;19930;-74
2022/10/12 03:23:59;;;;;;;;;;;12.90;99.90;;;;;;5095969;28;19912;-75
2022/10/12 03:26:25;;;;;;;;;;;12.90;99.90;;;;;;5096854;28;19943;-74
2022/10/12 03:28:51;;;;;;;;;;;12.90;99.90;;;;;;5094580;28;20349;-74
2022/10/12 03:31:16;;;;;;;;;;;12.90;99.90;;;;;;5096160;28;19915;-74
2022/10/12 03:33:42;;;;;;;;;;;12.90;99.90;;;;;;5096320;28;19938;-74
2022/10/12 03:36:08;;;;;;;;;;;12.90;99.90;;;;;;5095766;28;20444;-75
2022/10/12 03:38:34;;;;;;;;;;;12.90;99.90;;;;;;5096225;28;19961;-75
2022/10/12 03:40:59;;;;;;;;;;;12.90;99.90;;;;;;5095484;28;19908;-75
2022/10/12 03:43:25;;;;;;;;;;;12.80;99.90;;;;;;5096185;28;19923;-74
2022/10/12 03:45:51;;;;;;;;;;;12.80;99.90;;;;;;5094628;28;20424;-73
2022/10/12 03:48:16;;;;;;;;;;;12.80;99.90;;;;;;5094729;28;19908;-74
2022/10/12 03:50:47;;;;;;;;;;;12.80;99.90;;;;;;5094909;28;20001;-74
2022/10/12 03:53:12;;;;;;;;;;;12.80;99.90;;;;;;5092872;28;19912;-75
2022/10/12 03:55:38;;;;;;;;;;;12.80;99.90;;;;;;5094697;28;20292;-74
2022/10/12 03:58:03;;;;;;;;;;;12.80;99.90;;;;;;5094007;28;19911;-74
2022/10/12 04:00:29;;;;;;;;;;;12.80;99.90;;;;;;5094406;28;20350;-74
2022/10/12 04:02:54;;;;;;;;;;;12.70;99.90;;;;;;5093721;28;19908;-74
2022/10/12 04:05:20;;;;;;;;;;;12.70;99.90;;;;;;5094583;28;19912;-75
2022/10/12 04:07:46;;;;;;;;;;;12.70;99.90;;;;;;5094407;28;19944;-74
2022/10/12 04:10:11;;;;;;;;;;;12.70;99.90;;;;;;5093954;28;19908;-75
2022/10/12 04:12:37;;;;;;;;;;;12.60;99.90;;;;;;5094519;28;20003;-75
2022/10/12 04:15:03;;;;;;;;;;;12.70;99.90;;;;;;5093903;28;19912;-74
2022/10/12 04:17:28;;;;;;;;;;;12.60;99.90;;;;;;5094363;28;19922;-75
2022/10/12 04:19:54;;;;;;;;;;;12.60;99.90;;;;;;5092584;28;20007;-75
2022/10/12 04:22:20;;;;;;;;;;;12.70;99.90;;;;;;5094378;28;20084;-76
2022/10/12 04:24:45;;;;;;;;;;;12.60;99.90;;;;;;5094483;28;19908;-76
2022/10/12 04:27:11;;;;;;;;;;;12.70;99.90;;;;;;5093172;28;19915;-76
2022/10/12 04:29:36;;;;;;;;;;;12.70;99.90;;;;;;5094191;28;19930;-76
2022/10/12 04:32:02;;;;;;;;;;;12.70;99.90;;;;;;5093533;28;19915;-76
2022/10/12 04:34:27;;;;;;;;;;;12.70;99.90;;;;;;5094139;28;20377;-76
2022/10/12 04:36:53;;;;;;;;;;;12.70;99.90;;;;;;5093776;28;19908;-76
2022/10/12 04:39:19;;;;;;;;;;;12.70;99.90;;;;;;5093575;28;19908;-76
2022/10/12 04:41:44;;;;;;;;;;;12.70;99.90;;;;;;5094127;28;19908;-76
2022/10/12 04:44:10;;;;;;;;;;;12.70;99.90;;;;;;5015873;28;2148723;-76
2022/10/12 04:46:35;;;;;;;;;;;12.80;99.90;;;;;;5094933;28;19912;-76
2022/10/12 04:49:01;;;;;;;;;;;12.80;99.90;;;;;;5094332;28;20361;-75
2022/10/12 04:51:26;;;;;;;;;;;12.80;99.90;;;;;;5094864;28;19948;-75
2022/10/12 04:53:52;;;;;;;;;;;12.80;99.90;;;;;;5094685;28;20363;-75
2022/10/12 04:56:18;;;;;;;;;;;12.90;99.90;;;;;;5094165;28;19969;-75
2022/10/12 04:58:43;;;;;;;;;;;12.80;99.90;;;;;;5094461;28;20002;-75
2022/10/12 05:01:09;;;;;;;;;;;12.90;99.90;;;;;;5093838;28;19908;-74
2022/10/12 05:03:34;;;;;;;;;;;12.90;99.90;;;;;;5094533;28;20361;-75
2022/10/12 05:06:00;;;;;;;;;;;13.00;99.90;;;;;;5093933;28;19920;-75
2022/10/12 05:08:26;;;;;;;;;;;13.00;99.90;;;;;;5093442;28;19908;-75
2022/10/12 05:10:51;;;;;;;;;;;13.10;99.90;;;;;;5094482;28;20341;-74
2022/10/12 05:13:17;;;;;;;;;;;13.10;99.90;;;;;;5092839;28;19908;-74
2022/10/12 05:15:43;;;;;;;;;;;13.20;99.90;;;;;;5094108;28;19920;-75
2022/10/12 05:18:08;;;;;;;;;;;13.20;99.90;;;;;;5093679;28;20358;-74
2022/10/12 05:20:34;;;;;;;;;;;13.20;99.90;;;;;;5093951;28;19964;-75
2022/10/12 05:23:00;;;;;;;;;;;13.20;99.90;;;;;;5093747;28;19908;-75
2022/10/12 05:25:28;;;;;;;;;;;13.30;99.90;;;;;;5094629;28;20046;-75
2022/10/12 05:27:54;;;;;;;;;;;13.30;99.90;;;;;;5094057;28;20268;-74
2022/10/12 05:30:19;;;;;;;;;;;13.30;99.90;;;;;;5093420;28;19912;-75
2022/10/12 05:32:45;;;;;;;;;;;13.20;99.90;;;;;;5092726;28;20001;-75
2022/10/12 05:35:10;;;;;;;;;;;13.20;99.90;;;;;;5093558;28;19916;-74
2022/10/12 05:37:36;;;;;;;;;;;13.20;99.90;;;;;;5092654;28;19908;-75
2022/10/12 05:40:02;;;;;;;;;;;13.10;99.90;;;;;;5093330;28;19916;-75
2022/10/12 05:42:28;;;;;;;;;;;13.10;99.90;;;;;;5094016;28;19953;-76
2022/10/12 05:44:53;;;;;;;;;;;13.00;99.90;;;;;;5093128;28;19924;-75
2022/10/12 05:47:19;;;;;;;;;;;13.00;99.90;;;;;;5092808;28;19904;-75
2022/10/12 05:49:45;;;;;;;;;;;13.00;99.90;;;;;;5093286;28;19953;-76
2022/10/12 05:52:10;;;;;;;;;;;13.10;99.90;;;;;;5092934;28;20262;-75
2022/10/12 05:54:36;;;;;;;;;;;13.00;99.90;;;;;;5093746;28;19912;-75
2022/10/12 05:57:01;;;;;;;;;;;13.10;99.90;;;;;;5092976;28;19908;-75
2022/10/12 05:59:27;;;;;;;;;;;13.10;99.90;;;;;;5093350;28;20401;-75
2022/10/12 06:01:53;;;;;;;;;;;13.10;99.90;;;;;;5093173;28;20377;-75
2022/10/12 06:04:19;;;;;;;;;;;13.10;99.90;;;;;;5092826;28;19917;-75
2022/10/12 06:06:44;;;;;;;;;;;13.20;99.90;;;;;;5093296;28;19907;-75
2022/10/12 06:09:11;;;;;;;;;;;13.20;99.90;;;;;;5091358;28;20426;-76
2022/10/12 06:11:37;;;;;;;;;;;13.20;99.90;;;;;;5093125;28;20369;-76
2022/10/12 06:14:03;;;;;;;;;;;13.20;99.90;;;;;;5092767;28;19912;-76
2022/10/12 06:16:28;;;;;;;;;;;13.30;99.90;;;;;;5092895;28;20280;-75
2022/10/12 06:18:54;;;;;;;;;;;13.30;99.90;;;;;;5093103;28;20007;-75
2022/10/12 06:21:19;;;;;;;;;;;13.40;99.90;;;;;;5092319;28;20372;-76
2022/10/12 06:23:45;;;;;;;;;;;13.40;99.90;;;;;;5092581;28;19931;-75
2022/10/12 06:26:11;;;;;;;;;;;13.40;99.90;;;;;;5092207;28;19962;-75
2022/10/12 06:28:36;;;;;;;;;;;13.50;99.90;;;;;;5092763;28;19953;-75
2022/10/12 06:31:02;;;;;;;;;;;13.50;99.90;;;;;;5092393;28;20407;-74
2022/10/12 06:33:27;;;;;;;;;;;13.50;99.90;;;;;;5092640;28;19912;-76
2022/10/12 06:35:53;;;;;;;;;;;13.40;99.90;;;;;;5092768;28;19912;-75
2022/10/12 06:38:19;;;;;;;;;;;13.40;99.90;;;;;;5092264;28;20014;-75
2022/10/12 06:40:44;;;;;;;;;;;13.30;99.90;;;;;;5092815;28;19908;-75
2022/10/12 06:43:10;;;;;;;;;;;13.30;99.90;;;;;;5091980;28;19913;-76
2022/10/12 06:45:36;;;;;;;;;;;13.20;99.90;;;;;;5092547;28;20385;-75
2022/10/12 06:48:02;;;;;;;;;;;13.20;99.90;;;;;;5089908;28;19908;-75
2022/10/12 06:50:28;;;;;;;;;;;13.10;99.90;;;;;;5092305;28;19908;-75
2022/10/12 06:52:53;;;;;;;;;;;13.10;99.90;;;;;;5092338;28;19912;-75
2022/10/12 06:55:19;;;;;;;;;;;13.10;99.90;;;;;;5092090;28;19918;-74
2022/10/12 06:57:45;;;;;;;;;;;13.10;99.90;;;;;;5092960;28;19908;-75
2022/10/12 07:00:12;;;;;;;;;;;13.20;99.90;;;;;;5091555;28;20272;-75
2022/10/12 07:02:37;;;;;;;;;;;13.20;99.90;;;;;;5092256;28;19908;-75
2022/10/12 07:05:04;;;;;;;;;;;13.20;99.90;;;;;;5092125;28;20015;-76
2022/10/12 07:07:30;;;;;;;;;;;13.30;99.90;;;;;;5092092;28;20006;-75
2022/10/12 07:09:56;;;;;;;;;;;13.30;99.90;;;;;;5092571;28;19912;-75
2022/10/12 07:12:21;;;;;;;;;;;13.30;99.90;;;;;;5091374;28;19916;-75
2022/10/12 07:14:47;;;;;;;;;;;13.40;99.90;;;;;;5092276;28;19999;-75
2022/10/12 07:17:12;;;;;;;;;;;13.50;99.90;;;;;;5091473;28;20353;-76
2022/10/12 07:19:38;;;;;;;;;;;13.50;99.90;;;;;;5091653;28;19908;-74
2022/10/12 07:22:03;;;;;;;;;;;13.50;99.90;;;;;;5092155;28;19916;-75
2022/10/12 07:24:35;;;;;;;;;;;13.60;99.90;;;;;;5091797;28;20014;-75
2022/10/12 07:27:04;;;;;;;;;;;13.60;99.90;;;;;;5092761;28;19919;-75
2022/10/12 07:29:30;;;;;;;;;;;13.60;99.90;;;;;;5092085;28;19908;-74
2022/10/12 07:31:57;;;;;;;;;;;13.60;99.90;;;;;;5092202;28;20373;-75
2022/10/12 07:34:22;;;;;;;;;;;13.70;99.90;;;;;;5091468;28;19916;-75
2022/10/12 07:36:48;;;;;;;;;;;13.70;99.90;;;;;;5093649;28;20058;-76
2022/10/12 07:39:13;;;;;;;;;;;13.70;99.90;;;;;;5095006;28;19916;-76
2022/10/12 07:41:39;;;;;;;;;;;13.70;99.90;;;;;;5095761;28;19908;-75
2022/10/12 07:44:05;;;;;;;;;;;13.70;99.90;;;;;;5095828;28;19971;-75
2022/10/12 07:46:30;;;;;;;;;;;13.80;99.90;;;;;;5095379;28;19961;-76
2022/10/12 07:48:56;;;;;;;;;;;13.80;99.90;;;;;;5095538;28;19908;-75
2022/10/12 07:51:21;;;;;;;;;;;13.80;99.90;;;;;;5095329;28;20355;-76
2022/10/12 07:53:47;;;;;;;;;;;13.80;99.90;;;;;;5095877;28;20412;-76
2022/10/12 07:56:16;;;;;;;;;;;13.80;99.90;;;;;;5095359;28;20273;-75
2022/10/12 07:58:42;;;;;;;;;;;13.80;99.90;;;;;;5095010;28;20011;-75
2022/10/12 08:01:08;;;;;;;;;;;13.80;99.90;;;;;;5094842;28;19908;-75
2022/10/12 08:03:34;;;;;;;;;;;13.80;99.90;;;;;;5093977;28;19915;-75
2022/10/12 08:06:06;;;;;;;;;;;13.80;99.90;;;;;;5095357;28;19912;-76
2022/10/12 08:08:32;;;;;;;;;;;13.80;99.90;;;;;;5094099;28;20002;-76
2022/10/12 08:10:59;;;;;;;;;;;13.80;99.90;;;;;;5094557;28;20397;-76
2022/10/12 08:13:25;;;;;;;;;;;13.80;99.90;;;;;;5094156;28;19912;-75
2022/10/12 08:15:51;;;;;;;;;;;13.80;99.90;;;;;;5094607;28;19916;-76
2022/10/12 08:18:16;;;;;;;;;;;13.90;99.90;;;;;;5094282;28;19908;-76
2022/10/12 08:20:42;;;;;;;;;;;13.80;99.90;;;;;;5095050;28;19908;-76
2022/10/12 08:23:07;;;;;;;;;;;13.90;99.90;;;;;;5094733;28;19908;-76
2022/10/12 08:25:33;;;;;;;;;;;13.90;99.90;;;;;;5093154;28;19912;-76
2022/10/12 08:27:59;;;;;;;;;;;13.90;99.90;;;;;;5094438;28;19908;-76
2022/10/12 08:30:25;;;;;;;;;;;13.90;99.90;;;;;;5092577;28;19912;-75
2022/10/12 08:32:52;;;;;;;;;;;13.90;99.90;;;;;;5094404;28;19916;-76
2022/10/12 08:35:17;;;;;;;;;;;13.90;99.90;;;;;;5094037;28;19912;-76
2022/10/12 08:37:43;;;;;;;;;;;13.90;99.90;;;;;;5093204;28;19908;-76
2022/10/12 08:40:23;;;;;;;;;;;14.00;99.90;;;;;;5094395;28;20341;-76
2022/10/12 08:42:53;;;;;;;;;;;14.00;99.90;;;;;;5094703;28;19934;-76
2022/10/12 08:45:38;;;;;;;;;;;14.00;99.90;;;;;;5093873;28;19927;-75
2022/10/12 08:48:09;;;;;;;;;;;14.10;99.90;;;;;;5093226;28;19908;-75
2022/10/12 08:50:37;;;;;;;;;;;14.10;99.90;;;;;;5091361;28;19912;-75
2022/10/12 08:53:10;;;;;;;;;;;14.10;99.90;;;;;;5077972;28;19919;-75
2022/10/12 08:55:40;;;;;;;;;;;14.10;99.90;;;;;;5073775;28;20003;-76
2022/10/12 08:58:17;;;;;;;;;;;14.10;99.90;;;;;;5074025;28;19952;-76
2022/10/12 09:00:45;;;;;;;;;;;14.10;99.90;;;;;;5073458;28;20270;-76
2022/10/12 09:03:19;;;;;;;;;;;14.10;99.90;;;;;;5073110;28;19918;-76
2022/10/12 09:05:49;;;;;;;;;;;14.10;99.90;;;;;;5073724;28;20353;-75
2022/10/12 09:08:21;;;;;;;;;;;14.10;99.90;;;;;;5072941;28;20014;-75
2022/10/12 09:10:54;;;;;;;;;;;14.10;99.90;;;;;;5073789;28;19908;-75
2022/10/12 09:13:26;;;;;;;;;;;14.20;99.90;;;;;;5072848;28;19913;-74
2022/10/12 09:16:02;;;;;;;;;;;14.20;99.90;;;;;;5073257;28;19919;-75
2022/10/12 09:18:30;;;;;;;;;;;14.20;99.90;;;;;;5072874;28;19912;-75
2022/10/12 09:20:56;;;;;;;;;;;14.20;99.90;;;;;;5073488;28;19909;-75
2022/10/12 09:23:23;;;;;;;;;;;14.20;99.90;;;;;;5072751;28;19909;-75
2022/10/12 09:25:49;;;;;;;;;;;14.20;99.90;;;;;;5073433;28;19909;-76
2022/10/12 09:28:36;;;;;;;;;;;14.20;99.90;;;;;;5072596;28;19916;-75
2022/10/12 09:31:20;;;;;;;;;;;14.30;99.90;;;;;;5072295;28;19908;-75
2022/10/12 09:33:50;;;;;;;;;;;14.30;99.90;;;;;;5072662;28;19912;-75
2022/10/12 09:36:18;;;;;;;;;;;14.30;99.90;;;;;;5072198;28;20350;-75
2022/10/12 09:38:44;;;;;;;;;;;14.30;99.90;;;;;;5072837;28;19931;-76
2022/10/12 09:41:20;;;;;;;;;;;14.30;99.90;;;;;;5072834;28;20349;-75
2022/10/12 09:43:48;;;;;;;;;;;14.30;99.90;;;;;;5071330;28;20003;-75
2022/10/12 09:46:14;;;;;;;;;;;14.30;99.90;;;;;;5072156;28;19915;-76
2022/10/12 09:48:55;;;;;;;;;;;14.30;99.90;;;;;;5071748;28;19909;-75
2022/10/12 09:51:20;;;;;;;;;;;14.30;99.90;;;;;;5071191;28;19912;-76
2022/10/12 09:53:47;;;;;;;;;;;14.30;99.90;;;;;;5072635;28;20269;-75
2022/10/12 09:56:29;;;;;;;;;;;14.30;99.90;;;;;;5072054;28;19913;-75
2022/10/12 09:58:57;;;;;;;;;;;14.40;99.90;;;;;;5070942;28;19908;-75
2022/10/12 10:01:24;;;;;;;;;;;14.40;99.90;;;;;;5071748;28;19916;-75
2022/10/12 10:04:06;;;;;;;;;;;14.50;99.90;;;;;;5072446;28;19915;-75
2022/10/12 10:06:32;;;;;;;;;;;14.50;99.90;;;;;;5071898;28;19904;-77
2022/10/12 10:08:57;;;;;;;;;;;14.60;99.90;;;;;;5073145;28;19916;-76
2022/10/12 10:11:25;;;;;;;;;;;14.60;99.90;;;;;;5072120;28;19908;-75
2022/10/12 10:13:52;;;;;;;;;;;14.70;99.90;;;;;;5072674;28;19987;-76
2022/10/12 10:16:18;;;;;;;;;;;14.70;99.90;;;;;;5072408;28;19913;-74
2022/10/12 10:18:53;;;;;;;;;;;14.60;99.90;;;;;;5072924;28;19909;-75
2022/10/12 10:21:30;;;;;;;;;;;14.70;99.90;;;;;;5072157;28;19908;-76
2022/10/12 10:24:05;;;;;;;;;;;14.70;99.90;;;;;;5072821;28;19908;-75
2022/10/12 10:27:10;;;;;;;;;;;14.80;99.90;;;;;;5072321;28;20019;-76
2022/10/12 10:29:37;;;;;;;;;;;14.80;99.90;;;;;;5049888;28;19916;-76
2022/10/12 10:32:11;;;;;;;;;;;14.90;99.90;;;;;;5050452;28;19963;-76
2022/10/12 10:34:37;;;;;;;;;;;14.90;99.90;;;;;;5049451;28;19917;-76
2022/10/12 10:37:04;;;;;;;;;;;15.00;99.90;;;;;;5049916;28;19915;-75
2022/10/12 10:39:31;;;;;;;;;;;15.00;99.90;;;;;;5033188;28;19952;-77
2022/10/12 10:42:11;;;;;;;;;;;15.00;99.90;;;;;;5033753;28;19920;-75
2022/10/12 10:44:37;;;;;;;;;;;15.00;99.90;;;;;;5033147;28;19921;-76
2022/10/12 10:47:07;;;;;;;;;;;15.00;99.90;;;;;;5034379;28;19971;-76
2022/10/12 10:49:41;;;;;;;;;;;15.10;99.90;;;;;;5036926;28;19921;-76
2022/10/12 10:52:18;;;;;;;;;;;15.10;99.90;;;;;;5034068;28;19920;-75
2022/10/12 10:54:44;;;;;;;;;;;15.00;99.90;;;;;;5033341;28;19963;-77
2022/10/12 10:57:13;;;;;;;;;;;15.00;99.90;;;;;;5049897;28;19917;-76
2022/10/12 10:59:51;;;;;;;;;;;15.10;99.90;;;;;;5054246;28;20415;-76
2022/10/12 11:02:19;;;;;;;;;;;15.20;99.90;;;;;;5071934;28;20304;-77
2022/10/12 11:04:47;;;;;;;;;;;15.30;99.90;;;;;;5070909;28;19912;-78
2022/10/12 11:07:22;;;;;;;;;;;15.30;99.90;;;;;;5071147;28;19943;-76
2022/10/12 11:09:50;;;;;;;;;;;15.40;99.90;;;;;;5070869;28;19908;-76
2022/10/12 11:12:18;;;;;;;;;;;15.40;99.90;;;;;;5089955;28;19947;-75
2022/10/12 11:14:49;;;;;;;;;;;15.50;99.90;;;;;;5075464;28;20331;-75
2022/10/12 11:17:18;;;;;;;;;;;15.40;99.90;;;;;;5075581;28;19954;-75
2022/10/12 11:19:47;;;;;;;;;;;15.40;99.90;;;;;;5074378;28;19948;-76
2022/10/12 11:22:15;;;;;;;;;;;15.40;99.90;;;;;;5075289;28;20365;-75
2022/10/12 11:24:46;;;;;;;;;;;15.40;99.90;;;;;;5075447;28;19919;-76
2022/10/12 11:27:24;;;;;;;;;;;15.40;99.90;;;;;;5075279;28;19944;-76
2022/10/12 11:29:53;;;;;;;;;;;15.40;99.90;;;;;;5075518;28;19909;-76
2022/10/12 11:32:40;;;;;;;;;;;15.40;99.90;;;;;;5073589;28;19953;-75
2022/10/12 11:35:06;;;;;;;;;;;15.40;99.90;;;;;;5075395;28;19917;-76
2022/10/12 11:37:36;;;;;;;;;;;15.30;99.90;;;;;;5074833;28;19908;-75
2022/10/12 11:40:03;;;;;;;;;;;15.30;99.90;;;;;;5075637;28;20411;-75
2022/10/12 11:42:34;;;;;;;;;;;15.30;99.90;;;;;;5074764;28;19989;-75
2022/10/12 11:45:01;;;;;;;;;;;15.30;99.90;;;;;;5107216;28;19928;-76
2022/10/12 11:47:29;;;;;;;;;;;15.30;99.90;;;;;;5074854;28;19909;-76
2022/10/12 11:49:58;;;;;;;;;;;15.30;99.90;;;;;;5073940;28;19954;-76
2022/10/12 11:52:24;;;;;;;;;;;15.30;99.90;;;;;;5074298;28;19908;-75
2022/10/12 11:54:59;;;;;;;;;;;15.30;99.90;;;;;;5090147;28;19912;-75
2022/10/12 11:57:27;;;;;;;;;;;15.40;99.90;;;;;;5074259;28;19908;-75
2022/10/12 12:00:01;;;;;;;;;;;15.40;99.90;;;;;;5074778;28;19908;-75
2022/10/12 12:02:41;;;;;;;;;;;15.40;99.90;;;;;;5074313;28;19915;-75
2022/10/12 12:05:13;;;;;;;;;;;15.50;99.90;;;;;;5073672;28;20357;-75
2022/10/12 12:07:41;;;;;;;;;;;15.40;99.90;;;;;;5074063;28;20009;-75
2022/10/12 12:10:34;;;;;;;;;;;15.50;99.90;;;;;;5074773;28;19909;-75
2022/10/12 12:13:10;;;;;;;;;;;15.40;99.90;;;;;;5074539;28;19936;-76
2022/10/12 12:15:35;;;;;;;;;;;15.50;99.90;;;;;;5073698;28;19909;-76
2022/10/12 12:18:20;;;;;;;;;;;15.50;99.90;;;;;;5074600;28;19954;-75
2022/10/12 12:20:46;;;;;;;;;;;15.50;99.90;;;;;;5074346;28;20322;-75
2022/10/12 12:23:21;;;;;;;;;;;15.30;99.90;;;;;;5074173;28;19909;-75
2022/10/12 12:26:02;;;;;;;;;;;15.30;99.90;;;;;;5074387;28;19995;-75
2022/10/12 12:28:28;;;;;;;;;;;15.20;99.90;;;;;;5073338;28;20362;-75
2022/10/12 12:30:55;;;;;;;;;;;15.10;99.90;;;;;;5074363;28;19999;-75
2022/10/12 12:33:27;;;;;;;;;;;15.00;99.90;;;;;;5073533;28;20301;-75
2022/10/12 12:35:59;;;;;;;;;;;14.90;99.90;;;;;;5074086;28;19913;-76
2022/10/12 12:38:27;;;;;;;;;;;14.80;99.90;;;;;;5073342;28;19971;-76
2022/10/12 12:40:56;;;;;;;;;;;14.70;99.90;;;;;;5074130;28;19915;-75
2022/10/12 12:43:27;;;;;;;;;;;14.80;99.90;;;;;;5073233;28;19913;-76
2022/10/12 12:45:54;;;;;;;;;;;14.80;99.90;;;;;;5074181;28;19978;-74
2022/10/12 12:48:38;;;;;;;;;;;14.90;99.90;;;;;;5073067;28;20262;-75
2022/10/12 12:51:16;;;;;;;;;;;14.90;99.90;;;;;;5073949;28;19909;-76
2022/10/12 12:53:47;;;;;;;;;;;14.90;99.90;;;;;;5073429;28;20349;-75
2022/10/12 12:56:33;;;;;;;;;;;14.90;99.90;;;;;;5074253;28;19913;-76
2022/10/12 12:59:10;;;;;;;;;;;15.00;99.90;;;;;;5069584;28;20006;-76
2022/10/12 13:01:36;;;;;;;;;;;15.00;99.90;;;;;;5073226;28;19912;-75
2022/10/12 13:04:01;;;;;;;;;;;15.10;99.90;;;;;;5073814;28;19908;-76
2022/10/12 13:06:45;;;;;;;;;;;15.20;99.90;;;;;;5072759;28;20010;-75
2022/10/12 13:09:11;;;;;;;;;;;15.20;99.90;;;;;;5073570;28;20315;-75
2022/10/12 13:12:12;;;;;;;;;;;15.30;99.90;;;;;;5073133;28;19930;-75
2022/10/12 13:14:47;;;;;;;;;;;15.30;99.90;;;;;;5050174;28;20427;-75
2022/10/12 13:17:31;;;;;;;;;;;15.30;99.90;;;;;;5072160;28;19999;-76
2022/10/12 13:19:57;;;;;;;;;;;15.30;99.90;;;;;;5092075;28;19908;-75
2022/10/12 13:22:33;;;;;;;;;;;15.20;99.90;;;;;;5092622;28;19998;-76
2022/10/12 13:25:06;;;;;;;;;;;15.20;99.90;;;;;;5091971;28;19908;-76
2022/10/12 13:27:38;;;;;;;;;;;15.20;99.90;;;;;;5092103;28;20610;-75
2022/10/12 13:30:07;;;;;;;;;;;15.20;99.90;;;;;;5092558;28;19908;-76
2022/10/12 13:32:39;;;;;;;;;;;15.10;99.90;;;;;;5092448;28;19923;-75
2022/10/12 13:35:13;;;;;;;;;;;15.20;99.90;;;;;;5092201;28;19990;-75
2022/10/12 13:37:39;;;;;;;;;;;15.20;99.90;;;;;;5092564;28;19908;-76
2022/10/12 13:40:04;;;;;;;;;;;15.20;99.90;;;;;;5093235;28;19908;-77
2022/10/12 13:42:32;;;;;;;;;;;15.20;99.90;;;;;;5092391;28;19918;-76
2022/10/12 13:44:58;;;;;;;;;;;15.30;99.90;;;;;;5092622;28;19966;-77
2022/10/12 13:47:31;;;;;;;;;;;15.30;99.90;;;;;;5092404;28;19908;-76
2022/10/12 13:49:56;;;;;;;;;;;15.30;99.90;;;;;;5092609;28;19934;-76
2022/10/12 13:52:32;;;;;;;;;;;15.30;99.90;;;;;;5091807;28;20393;-75
2022/10/12 13:54:58;;;;;;;;;;;15.20;99.90;;;;;;5092666;28;19919;-76
2022/10/12 13:57:40;;;;;;;;;;;15.30;99.90;;;;;;5092144;28;19909;-77
2022/10/12 14:00:15;;;;;;;;;;;15.20;99.90;;;;;;5092899;28;19947;-75
2022/10/12 14:02:41;;;;;;;;;;;15.10;99.90;;;;;;5092174;28;19915;-74
2022/10/12 14:05:18;;;;;;;;;;;15.00;99.90;;;;;;5092723;28;20361;-75
2022/10/12 14:07:44;;;;;;;;;;;15.00;99.90;;;;;;5092173;28;19923;-75
2022/10/12 14:10:27;;;;;;;;;;;15.00;99.90;;;;;;5091924;28;19908;-75
2022/10/12 14:12:53;;;;;;;;;;;14.90;99.90;;;;;;5090945;28;19927;-75
2022/10/12 14:15:20;;;;;;;;;;;14.80;99.90;;;;;;5092480;28;19912;-75
2022/10/12 14:17:47;;;;;;;;;;;14.80;99.90;;;;;;5092258;28;20361;-76
2022/10/12 14:20:31;;;;;;;;;;;14.70;99.90;;;;;;5092381;28;19908;-76
2022/10/12 14:22:58;;;;;;;;;;;14.70;99.90;;;;;;5092382;28;19909;-77
2022/10/12 14:25:28;;;;;;;;;;;14.60;99.90;;;;;;5091990;28;19908;-76